Time;durP1;ratioP1;P1;durP2;ratioP2;P2;SDS_P1;SDS_P2;PMS_P1;PMS_P2;Temp;Humidity;BMP_temperature;BMP_pressure;BME280_temperature;BME280_humidity;BME280_pressure;Samples;Min_cycle;Max_cycle;Signal;HPM_P1;HPM_P2
2022/10/02 00:02:48;;;;;;;4.50;1.90;;;;;;;13.71;100.00;100363.06;5028548;28;20529;-53
2022/10/02 00:05:28;;;;;;;16.23;1.60;;;;;;;13.79;100.00;100360.94;5018080;28;20479;-53
2022/10/02 00:08:16;;;;;;;4.87;0.83;;;;;;;13.83;100.00;100365.22;5035890;28;21018;-53
2022/10/02 00:10:56;;;;;;;10.23;1.33;;;;;;;13.92;100.00;100372.88;5037824;28;20447;-54
2022/10/02 00:13:29;;;;;;;5.40;1.13;;;;;;;13.98;100.00;100371.75;5042506;28;20450;-53
2022/10/02 00:15:56;;;;;;;37.67;1.80;;;;;;;14.00;100.00;100374.38;5042546;28;20434;-52
2022/10/02 00:18:33;;;;;;;2.93;1.47;;;;;;;14.06;100.00;100382.13;5036509;28;20459;-52
2022/10/02 00:21:08;;;;;;;12.33;1.67;;;;;;;14.08;100.00;100377.56;5035704;28;20505;-52
2022/10/02 00:23:40;;;;;;;6.33;1.27;;;;;;;14.09;100.00;100385.53;5039977;28;20499;-53
2022/10/02 00:26:17;;;;;;;1.73;1.23;;;;;;;14.11;100.00;100380.97;5042176;28;20501;-53
2022/10/02 00:28:53;;;;;;;0.63;0.63;;;;;;;14.13;100.00;100389.84;5040854;28;20454;-52
2022/10/02 00:31:27;;;;;;;1.53;1.43;;;;;;;14.10;100.00;100384.59;5032026;28;20447;-52
2022/10/02 00:34:20;;;;;;;1.23;0.97;;;;;;;14.07;100.00;100370.50;5042252;28;20463;-53
2022/10/02 00:37:34;;;;;;;8.33;1.07;;;;;;;14.09;100.00;100377.50;5039796;28;20457;-54
2022/10/02 00:40:37;;;;;;;0.70;0.53;;;;;;;14.15;100.00;100373.72;4971067;28;20496;-53
2022/10/02 00:43:23;;;;;;;3.83;1.30;;;;;;;13.96;100.00;100372.72;4966682;28;21241;-52
2022/10/02 00:46:19;;;;;;;8.57;2.20;;;;;;;14.01;100.00;100378.78;5009512;28;20860;-52
2022/10/02 00:48:57;;;;;;;5.60;0.87;;;;;;;14.10;100.00;100397.97;5041793;28;20456;-52
2022/10/02 00:51:47;;;;;;;7.80;0.93;;;;;;;14.19;100.00;100386.03;5040228;28;20451;-52
2022/10/02 00:54:23;;;;;;;0.53;0.43;;;;;;;14.20;100.00;100388.63;5026776;28;20845;-52
2022/10/02 00:57:04;;;;;;;0.70;0.70;;;;;;;14.22;100.00;100385.88;5034961;28;20446;-52
2022/10/02 00:59:37;;;;;;;13.77;1.90;;;;;;;14.17;100.00;100374.53;5018157;28;20795;-53
2022/10/02 01:02:11;;;;;;;2.50;0.90;;;;;;;14.38;100.00;100367.38;5045526;28;20882;-52
2022/10/02 01:04:39;;;;;;;0.60;0.33;;;;;;;14.19;100.00;100380.69;5035046;28;20502;-53
2022/10/02 01:07:10;;;;;;;0.70;0.70;;;;;;;14.23;100.00;100374.25;5040451;28;20875;-52
2022/10/02 01:09:38;;;;;;;1.40;0.67;;;;;;;14.39;100.00;100378.03;5041602;28;20971;-52
2022/10/02 01:12:06;;;;;;;2.63;0.77;;;;;;;14.47;100.00;100372.38;5037376;28;20836;-53
2022/10/02 01:14:38;;;;;;;2.07;1.03;;;;;;;14.29;100.00;100371.34;5034817;28;20471;-52
2022/10/02 01:17:18;;;;;;;11.87;2.30;;;;;;;14.15;100.00;100376.41;5038507;28;20458;-52
2022/10/02 01:19:44;;;;;;;6.87;1.37;;;;;;;14.17;100.00;100382.56;5041704;28;20451;-52
2022/10/02 01:22:31;;;;;;;0.80;0.80;;;;;;;14.30;100.00;100381.09;5039969;28;20524;-52
2022/10/02 01:25:03;;;;;;;3.30;0.63;;;;;;;14.32;100.00;100384.56;5040798;28;20490;-53
2022/10/02 01:27:30;;;;;;;2.53;1.17;;;;;;;14.23;100.00;100391.16;5041822;28;20477;-53
2022/10/02 01:30:06;;;;;;;10.37;0.70;;;;;;;14.38;100.00;100395.00;5037451;28;20446;-55
2022/10/02 01:32:36;;;;;;;4.47;1.03;;;;;;;14.49;100.00;100398.13;5037276;28;20446;-53
2022/10/02 01:35:04;;;;;;;0.40;0.40;;;;;;;14.35;100.00;100391.59;5041314;28;20472;-53
2022/10/02 01:37:34;;;;;;;2.00;0.60;;;;;;;14.39;100.00;100396.75;5045693;28;20521;-54
2022/10/02 01:40:10;;;;;;;8.33;1.20;;;;;;;14.20;100.00;100393.09;5043968;28;20570;-53
2022/10/02 01:42:38;;;;;;;11.13;0.90;;;;;;;14.19;100.00;100380.69;5038383;28;20453;-53
2022/10/02 01:45:07;;;;;;;1.43;0.93;;;;;;;14.21;100.00;100373.47;5039554;28;20479;-53
2022/10/02 01:47:58;;;;;;;1.80;0.57;;;;;;;14.18;100.00;100379.81;5051707;28;20454;-53
2022/10/02 01:50:46;;;;;;;4.30;0.97;;;;;;;14.26;100.00;100381.31;5038171;28;20508;-54
2022/10/02 01:53:30;;;;;;;5.73;0.77;;;;;;;14.35;100.00;100379.09;5036910;28;20463;-54
2022/10/02 01:56:03;;;;;;;2.83;0.40;;;;;;;14.46;100.00;100386.69;5042046;28;20474;-54
2022/10/02 01:58:59;;;;;;;3.27;1.50;;;;;;;14.35;100.00;100388.91;5045228;28;20455;-53
2022/10/02 02:01:59;;;;;;;10.20;1.07;;;;;;;14.28;100.00;100395.47;5004386;28;20953;-53
2022/10/02 02:04:34;;;;;;;3.73;2.07;;;;;;;14.08;100.00;100397.16;5038719;28;20506;-53
2022/10/02 02:07:15;;;;;;;2.20;0.67;;;;;;;14.08;100.00;100404.31;5044227;28;20446;-53
2022/10/02 02:09:59;;;;;;;3.70;0.90;;;;;;;14.02;100.00;100393.88;5044826;28;20586;-53
2022/10/02 02:12:44;;;;;;;0.60;0.50;;;;;;;13.94;100.00;100387.03;5044089;28;20451;-53
2022/10/02 02:15:21;;;;;;;3.67;0.77;;;;;;;13.92;100.00;100386.22;5043657;28;20521;-53
2022/10/02 02:17:59;;;;;;;0.40;0.40;;;;;;;13.93;100.00;100393.31;5044577;28;20960;-53
2022/10/02 02:20:37;;;;;;;0.40;0.30;;;;;;;13.76;100.00;100390.47;5042883;28;20501;-55
2022/10/02 02:23:09;;;;;;;0.90;0.70;;;;;;;13.79;100.00;100390.31;5037882;28;20995;-53
2022/10/02 02:25:39;;;;;;;0.70;0.60;;;;;;;13.82;100.00;100374.16;5038173;28;20549;-53
2022/10/02 02:28:11;;;;;;;2.20;0.53;;;;;;;13.72;100.00;100380.84;5044259;28;21081;-53
2022/10/02 02:30:40;;;;;;;9.03;1.47;;;;;;;13.68;100.00;100370.31;5044599;28;20453;-53
2022/10/02 02:33:15;;;;;;;3.70;0.77;;;;;;;13.68;100.00;100371.19;5039855;28;20893;-53
2022/10/02 02:35:47;;;;;;;15.43;2.50;;;;;;;13.69;100.00;100375.59;5037778;28;20875;-53
2022/10/02 02:38:27;;;;;;;2.97;0.67;;;;;;;13.68;100.00;100379.19;5040504;28;20508;-54
2022/10/02 02:40:58;;;;;;;0.90;0.53;;;;;;;13.62;100.00;100385.66;5026581;28;20450;-53
2022/10/02 02:43:43;;;;;;;29.97;1.50;;;;;;;13.62;100.00;100385.66;5042688;28;20486;-54
2022/10/02 02:46:19;;;;;;;8.73;0.90;;;;;;;13.63;100.00;100386.53;5029877;28;20837;-53
2022/10/02 02:48:51;;;;;;;1.17;0.40;;;;;;;13.60;100.00;100384.00;5046862;28;20455;-54
2022/10/02 02:51:22;;;;;;;7.17;0.63;;;;;;;13.54;100.00;100393.09;5042172;28;20982;-53
2022/10/02 02:53:58;;;;;;;1.80;0.77;;;;;;;13.72;100.00;100401.34;5042137;28;20549;-54
2022/10/02 02:56:28;;;;;;;1.87;0.80;;;;;;;13.67;100.00;100404.16;5044884;28;20494;-51
2022/10/02 02:59:09;;;;;;;4.47;1.70;;;;;;;13.65;100.00;100395.34;5024846;28;20500;-50
2022/10/02 03:01:35;;;;;;;4.47;0.43;;;;;;;13.59;100.00;100396.47;5038437;28;20574;-54
2022/10/02 03:04:02;;;;;;;0.50;0.40;;;;;;;13.48;100.00;100398.69;5042801;28;20491;-51
2022/10/02 03:06:36;;;;;;;1.90;0.73;;;;;;;13.52;100.00;100392.28;5044142;28;20504;-52
2022/10/02 03:09:06;;;;;;;5.60;1.00;;;;;;;13.55;100.00;100394.84;5041267;28;20561;-51
2022/10/02 03:11:51;;;;;;;0.50;0.40;;;;;;;13.51;100.00;100400.38;5019759;28;20846;-53
2022/10/02 03:14:48;;;;;;;36.07;2.07;;;;;;;13.34;100.00;100396.56;5037332;28;20464;-52
2022/10/02 03:17:35;;;;;;;5.20;0.80;;;;;;;13.33;100.00;100394.81;5032225;28;20873;-52
2022/10/02 03:20:20;;;;;;;3.17;1.90;;;;;;;13.45;100.00;100406.81;5024940;28;20451;-51
2022/10/02 03:23:01;;;;;;;1.87;0.93;;;;;;;13.38;100.00;100399.97;5036892;28;20452;-51
2022/10/02 03:25:30;;;;;;;0.40;0.30;;;;;;;13.26;100.00;100395.97;5038686;28;20495;-53
2022/10/02 03:28:05;;;;;;;3.40;0.90;;;;;;;13.34;100.00;100398.34;5043937;28;20459;-51
2022/10/02 03:30:34;;;;;;;12.53;1.07;;;;;;;13.40;100.00;100398.09;5043462;28;20457;-53
2022/10/02 03:33:02;;;;;;;7.73;0.60;;;;;;;13.43;100.00;100400.69;5036597;28;20450;-54
2022/10/02 03:35:30;;;;;;;1.07;0.70;;;;;;;13.46;100.00;100402.34;5036652;28;20479;-53
2022/10/02 03:38:05;;;;;;;16.23;1.53;;;;;;;13.48;100.00;100405.84;5050152;28;20455;-53
2022/10/02 03:40:31;;;;;;;4.77;0.70;;;;;;;13.77;100.00;100412.69;5036660;28;20449;-51
2022/10/02 03:42:58;;;;;;;5.43;0.80;;;;;;;13.81;100.00;100395.59;5042044;28;20505;-53
2022/10/02 03:45:25;;;;;;;27.77;1.43;;;;;;;13.79;100.00;100400.16;5042098;28;20997;-51
2022/10/02 03:48:12;;;;;;;1.57;0.73;;;;;;;13.85;100.00;100399.91;5042651;28;20538;-53
2022/10/02 03:50:38;;;;;;;2.23;2.03;;;;;;;13.82;100.00;100397.34;5036458;28;20493;-51
2022/10/02 03:53:16;;;;;;;8.87;0.97;;;;;;;13.76;100.00;100402.94;5034898;28;20464;-53
2022/10/02 03:55:47;;;;;;;0.60;0.47;;;;;;;13.99;100.00;100402.03;5025493;28;20463;-52
2022/10/02 03:58:16;;;;;;;12.80;0.83;;;;;;;13.97;100.00;100407.41;5036289;28;20475;-52
2022/10/02 04:00:54;;;;;;;8.13;1.17;;;;;;;14.15;100.00;100405.81;5040216;28;20509;-52
2022/10/02 04:03:28;;;;;;;20.23;1.70;;;;;;;14.25;100.00;100409.81;5040673;28;20594;-52
2022/10/02 04:06:00;;;;;;;1.40;0.63;;;;;;;14.17;100.00;100404.81;5041613;28;20453;-51
2022/10/02 04:08:33;;;;;;;11.83;1.37;;;;;;;14.26;100.00;100403.56;5036100;28;20459;-53
2022/10/02 04:11:15;;;;;;;0.80;0.80;;;;;;;14.35;100.00;100396.94;5022504;28;20502;-54
2022/10/02 04:14:02;;;;;;;6.10;1.53;;;;;;;14.41;100.00;100402.03;5038648;28;20470;-51
2022/10/02 04:16:34;;;;;;;3.13;0.87;;;;;;;14.36;100.00;100406.69;5035850;28;20451;-51
2022/10/02 04:19:17;;;;;;;2.10;1.57;;;;;;;14.37;100.00;100400.41;5036706;28;20892;-53
2022/10/02 04:21:57;;;;;;;0.80;0.70;;;;;;;14.39;100.00;100403.88;5026588;28;20447;-51
2022/10/02 04:24:37;;;;;;;5.37;1.50;;;;;;;14.40;100.00;100397.63;5035693;28;21019;-54
2022/10/02 04:27:35;;;;;;;10.33;2.37;;;;;;;14.37;100.00;100398.59;5049462;28;20475;-54
2022/10/02 04:30:14;;;;;;;1.63;1.53;;;;;;;14.36;100.00;100404.88;5029467;28;20951;-51
2022/10/02 04:32:40;;;;;;;9.93;1.30;;;;;;;14.38;100.00;100403.00;5035405;28;20501;-52
2022/10/02 04:35:19;;;;;;;18.63;2.33;;;;;;;14.37;100.00;100420.00;5037163;28;20475;-49
2022/10/02 04:38:14;;;;;;;19.90;1.00;;;;;;;14.37;100.00;100405.75;5022815;28;20485;-51
2022/10/02 04:41:18;;;;;;;6.27;0.87;;;;;;;14.30;100.00;100410.50;5035427;28;20477;-51
2022/10/02 04:44:23;;;;;;;1.13;1.03;;;;;;;14.27;100.00;100404.44;5035060;28;20561;-51
2022/10/02 04:47:18;;;;;;;6.87;1.50;;;;;;;14.39;100.00;100410.13;5035547;28;20443;-50
2022/10/02 04:49:58;;;;;;;6.47;2.00;;;;;;;14.38;100.00;100412.84;5036732;28;20443;-51
2022/10/02 04:52:44;;;;;;;2.23;2.03;;;;;;;14.27;100.00;100420.47;5047277;28;20504;-50
2022/10/02 04:55:35;;;;;;;11.40;1.43;;;;;;;14.33;100.00;100410.38;5035428;28;20482;-51
2022/10/02 04:58:23;;;;;;;2.93;1.40;;;;;;;14.18;100.00;100411.03;5035271;28;20448;-52
2022/10/02 05:01:24;;;;;;;8.63;1.23;;;;;;;14.33;100.00;100410.38;5038650;28;20551;-52
2022/10/02 05:04:19;;;;;;;1.80;0.77;;;;;;;14.23;100.00;100403.66;5024812;28;21006;-53
2022/10/02 05:07:06;;;;;;;2.60;1.07;;;;;;;14.30;100.00;100405.16;5034428;28;20454;-50
2022/10/02 05:10:12;;;;;;;4.20;1.30;;;;;;;14.27;100.00;100401.75;5034905;28;20459;-50
2022/10/02 05:13:11;;;;;;;8.93;1.10;;;;;;;14.26;100.00;100402.69;5034912;28;20455;-52
2022/10/02 05:15:44;;;;;;;3.97;1.03;;;;;;;14.13;100.00;100410.34;5036642;28;20952;-50
2022/10/02 05:18:18;;;;;;;1.37;0.83;;;;;;;14.12;100.00;100398.78;5042033;28;20517;-51
2022/10/02 05:21:07;;;;;;;1.20;1.00;;;;;;;14.21;100.00;100405.53;5042003;28;20450;-51
2022/10/02 05:23:55;;;;;;;11.63;0.80;;;;;;;14.11;100.00;100399.69;5041289;28;20455;-51
2022/10/02 05:27:06;;;;;;;29.73;1.60;;;;;;;14.04;100.00;100397.34;5022690;28;20999;-50
2022/10/02 05:29:46;;;;;;;3.43;0.67;;;;;;;14.04;100.00;100400.03;5034989;28;20447;-50
2022/10/02 05:32:30;;;;;;;10.30;1.47;;;;;;;14.12;100.00;100405.94;5034890;28;20945;-53
2022/10/02 05:35:14;;;;;;;11.37;0.77;;;;;;;14.12;100.00;100411.28;5036855;28;20463;-50
2022/10/02 05:37:56;;;;;;;0.70;0.70;;;;;;;14.14;100.00;100409.41;5035519;28;20880;-50
2022/10/02 05:40:28;;;;;;;0.77;0.50;;;;;;;14.08;100.00;100412.31;5034610;28;20455;-51
2022/10/02 05:43:08;;;;;;;1.90;1.13;;;;;;;14.10;100.00;100423.81;5037994;28;20456;-50
2022/10/02 05:46:10;;;;;;;3.00;2.23;;;;;;;14.15;100.00;100420.03;5045900;28;21070;-50
2022/10/02 05:48:48;;;;;;;3.40;1.27;;;;;;;14.12;100.00;100414.84;4964294;28;20462;-51
2022/10/02 05:51:30;;;;;;;1.27;0.87;;;;;;;14.12;100.00;100414.84;5029446;28;20458;-53
2022/10/02 05:54:03;;;;;;;0.73;0.60;;;;;;;14.10;100.00;100413.13;5041040;28;20487;-52
2022/10/02 05:57:01;;;;;;;0.60;0.60;;;;;;;14.17;100.00;100425.31;5041520;28;20446;-51
2022/10/02 05:59:49;;;;;;;6.20;1.37;;;;;;;14.10;100.00;100424.69;5039548;28;20874;-51
2022/10/02 06:02:33;;;;;;;3.23;1.63;;;;;;;14.06;100.00;100424.88;5027732;28;20867;-51
2022/10/02 06:05:15;;;;;;;0.60;0.43;;;;;;;14.21;100.00;100426.94;5034212;28;20539;-51
2022/10/02 06:07:46;;;;;;;11.23;1.90;;;;;;;14.13;100.00;100421.03;5035562;28;20482;-51
2022/10/02 06:10:21;;;;;;;3.20;0.53;;;;;;;14.09;100.00;100427.44;5021528;28;20451;-51
2022/10/02 06:13:10;;;;;;;9.47;0.97;;;;;;;14.05;100.00;100425.81;5034350;28;20488;-53
2022/10/02 06:15:50;;;;;;;0.87;0.50;;;;;;;14.12;100.00;100424.66;5036901;28;20472;-52
2022/10/02 06:18:22;;;;;;;0.60;0.60;;;;;;;14.04;100.00;100427.63;5042948;28;20501;-53
2022/10/02 06:20:54;;;;;;;1.00;0.90;;;;;;;14.20;100.00;100423.38;5026991;28;20940;-52
2022/10/02 06:23:24;;;;;;;0.90;0.67;;;;;;;14.22;100.00;100418.84;5039775;28;20451;-52
2022/10/02 06:25:55;;;;;;;0.83;0.40;;;;;;;14.26;100.00;100424.09;5038226;28;21006;-53
2022/10/02 06:28:50;;;;;;;5.43;0.83;;;;;;;14.33;100.00;100426.44;5042132;28;20456;-51
2022/10/02 06:31:53;;;;;;;0.63;0.50;;;;;;;14.33;100.00;100423.75;5044780;28;20455;-52
2022/10/02 06:34:19;;;;;;;1.10;0.70;;;;;;;14.32;100.00;100419.34;5044512;28;20471;-53
2022/10/02 06:37:06;;;;;;;1.37;1.23;;;;;;;14.32;100.00;100430.03;5042929;28;20454;-52
2022/10/02 06:39:51;;;;;;;29.20;0.70;;;;;;;14.31;100.00;100435.44;5043725;28;20451;-51
2022/10/02 06:42:32;;;;;;;0.60;0.40;;;;;;;14.46;100.00;100435.69;5044049;28;20957;-51
2022/10/02 06:45:07;;;;;;;2.00;0.50;;;;;;;14.42;100.00;100435.88;5043324;28;20490;-53
2022/10/02 06:47:56;;;;;;;3.13;0.90;;;;;;;14.39;100.00;100436.88;5026254;28;20505;-51
2022/10/02 06:50:42;;;;;;;0.60;0.40;;;;;;;14.39;100.00;100434.22;5037424;28;20450;-50
2022/10/02 06:53:31;;;;;;;6.23;0.60;;;;;;;14.28;100.00;100438.25;5048989;28;20454;-55
2022/10/02 06:56:04;;;;;;;1.53;1.47;;;;;;;14.35;100.00;100445.94;5040805;28;20956;-51
2022/10/02 06:58:36;;;;;;;8.57;1.00;;;;;;;14.32;100.00;100450.56;5037506;28;20459;-52
2022/10/02 07:01:23;;;;;;;5.13;0.80;;;;;;;14.34;100.00;100444.22;5039636;28;20518;-51
2022/10/02 07:04:20;;;;;;;0.50;0.40;;;;;;;14.36;100.00;100444.13;5025475;28;20470;-50
2022/10/02 07:07:05;;;;;;;2.53;1.23;;;;;;;14.27;100.00;100452.56;5037443;28;20533;-51
2022/10/02 07:09:50;;;;;;;2.10;0.60;;;;;;;14.13;100.00;100445.09;5036929;28;20513;-49
2022/10/02 07:12:35;;;;;;;6.23;0.50;;;;;;;14.28;100.00;100446.28;5041217;28;20452;-50
2022/10/02 07:15:27;;;;;;;0.93;0.80;;;;;;;14.01;100.00;100454.50;5036600;28;20467;-51
2022/10/02 07:17:56;;;;;;;6.93;0.90;;;;;;;14.04;100.00;100450.81;5037093;28;20579;-50
2022/10/02 07:20:44;;;;;;;14.00;1.17;;;;;;;14.07;100.00;100440.84;5040852;28;20510;-52
2022/10/02 07:23:25;;;;;;;0.73;0.60;;;;;;;13.97;100.00;100450.16;5031609;28;20505;-51
2022/10/02 07:26:19;;;;;;;3.50;0.60;;;;;;;13.89;100.00;100450.50;5043949;28;20494;-50
2022/10/02 07:29:06;;;;;;;0.50;0.50;;;;;;;13.91;100.00;100462.00;5041572;28;20446;-50
2022/10/02 07:31:44;;;;;;;1.10;0.70;;;;;;;14.04;100.00;100462.38;5010345;28;20853;-49
2022/10/02 07:34:38;;;;;;;5.20;0.50;;;;;;;14.20;100.00;100470.63;5032981;28;20547;-50
2022/10/02 07:37:17;;;;;;;3.03;1.80;;;;;;;14.23;100.00;100465.16;5037167;28;20503;-49
2022/10/02 07:39:49;;;;;;;0.60;0.50;;;;;;;14.21;100.00;100462.56;5026409;28;20454;-50
2022/10/02 07:42:27;;;;;;;0.60;0.50;;;;;;;14.08;100.00;100460.44;5036812;28;20474;-51
2022/10/02 07:45:19;;;;;;;0.70;0.60;;;;;;;14.12;100.00;100464.75;5043099;28;20487;-52
2022/10/02 07:47:51;;;;;;;1.63;0.73;;;;;;;14.28;100.00;100456.97;5019821;28;20463;-50
2022/10/02 07:50:26;;;;;;;0.90;0.50;;;;;;;14.16;100.00;100456.53;5043600;28;20451;-50
2022/10/02 07:53:00;;;;;;;1.57;1.47;;;;;;;14.30;100.00;100453.28;5030768;28;20446;-51
2022/10/02 07:55:27;;;;;;;1.43;1.33;;;;;;;14.33;100.00;100458.50;5030005;28;20524;-50
2022/10/02 07:58:18;;;;;;;7.13;1.87;;;;;;;14.37;100.00;100464.59;5030161;28;20452;-50
2022/10/02 08:00:49;;;;;;;1.00;0.87;;;;;;;14.53;100.00;100465.75;5039158;28;20447;-51
2022/10/02 08:03:23;;;;;;;1.43;1.33;;;;;;;14.48;100.00;100457.91;5032951;28;20456;-49
2022/10/02 08:05:53;;;;;;;3.43;0.97;;;;;;;14.44;100.00;100458.97;5039290;28;20582;-51
2022/10/02 08:08:31;;;;;;;3.80;1.80;;;;;;;14.43;100.00;100454.53;5034029;28;20455;-51
2022/10/02 08:11:07;;;;;;;2.73;0.63;;;;;;;14.57;100.00;100467.34;5037189;28;20447;-51
2022/10/02 08:13:40;;;;;;;0.90;0.50;;;;;;;14.53;100.00;100463.09;5017391;28;20944;-51
2022/10/02 08:16:08;;;;;;;2.73;0.77;;;;;;;14.50;100.00;100463.19;5043172;28;20509;-51
2022/10/02 08:18:47;;;;;;;0.57;0.47;;;;;;;14.59;100.00;100456.59;5037886;28;20451;-52
2022/10/02 08:21:17;;;;;;;0.60;0.50;;;;;;;14.58;100.00;100450.38;5035305;28;20447;-53
2022/10/02 08:24:02;;;;;;;3.00;0.97;;;;;;;14.56;100.00;100454.06;5039190;28;20475;-52
2022/10/02 08:26:46;;;;;;;0.57;0.50;;;;;;;14.59;100.00;100452.09;5022743;28;20544;-52
2022/10/02 08:29:23;;;;;;;0.50;0.40;;;;;;;14.66;100.00;100458.06;5035791;28;20463;-51
2022/10/02 08:31:51;;;;;;;1.03;0.87;;;;;;;14.54;100.00;100455.94;5038718;28;20830;-52
2022/10/02 08:34:20;;;;;;;0.50;0.50;;;;;;;14.56;100.00;100454.06;5042450;28;20475;-51
2022/10/02 08:37:00;;;;;;;1.77;0.60;;;;;;;14.48;100.00;100467.72;5040248;28;20777;-50
2022/10/02 08:39:43;;;;;;;0.40;0.30;;;;;;;14.44;100.00;100475.03;5022773;28;20835;-50
2022/10/02 08:42:31;;;;;;;2.40;0.30;;;;;;;14.60;100.00;100466.34;5044221;28;20446;-50
2022/10/02 08:45:25;;;;;;;0.90;0.50;;;;;;;14.47;100.00;100479.38;5032667;28;20494;-50
2022/10/02 08:48:14;;;;;;;0.73;0.60;;;;;;;14.50;100.00;100466.72;5028534;28;20425;-51
2022/10/02 08:51:23;;;;;;;4.63;0.40;;;;;;;14.52;100.00;100477.38;5022872;28;20469;-52
2022/10/02 08:53:49;;;;;;;0.40;0.30;;;;;;;14.63;100.00;100476.91;5040624;28;20545;-50
2022/10/02 08:56:30;;;;;;;2.43;0.43;;;;;;;14.62;100.00;100480.53;5029480;28;20860;-50
2022/10/02 08:59:29;;;;;;;0.70;0.50;;;;;;;14.69;100.00;100476.69;5023788;28;20466;-51
2022/10/02 09:02:26;;;;;;;2.20;0.70;;;;;;;14.70;100.00;100473.06;5045341;28;20493;-50
2022/10/02 09:05:24;;;;;;;0.40;0.30;;;;;;;14.71;100.00;100480.16;5034886;28;20888;-51
2022/10/02 09:08:16;;;;;;;0.50;0.30;;;;;;;14.73;100.00;100467.56;5034465;28;20502;-51
2022/10/02 09:11:07;;;;;;;0.67;0.33;;;;;;;14.74;100.00;100453.25;5039596;28;20497;-52
2022/10/02 09:13:39;;;;;;;1.07;0.97;;;;;;;14.84;100.00;100465.31;5024159;28;20455;-50
2022/10/02 09:16:13;;;;;;;0.43;0.40;;;;;;;14.92;100.00;100460.47;5035089;28;20450;-53
2022/10/02 09:18:45;;;;;;;0.90;0.83;;;;;;;14.95;100.00;100473.75;5038974;28;20964;-51
2022/10/02 09:21:17;;;;;;;0.40;0.30;;;;;;;14.90;100.00;100469.50;5041462;28;20949;-53
2022/10/02 09:24:10;;;;;;;0.90;0.60;;;;;;;15.01;100.00;100477.97;5039705;28;20475;-50
2022/10/02 09:26:59;;;;;;;1.10;1.00;;;;;;;14.90;100.00;100474.88;5025250;28;20490;-52
2022/10/02 09:30:10;;;;;;;1.10;1.00;;;;;;;14.95;100.00;100470.22;5035446;28;20450;-50
2022/10/02 09:33:27;;;;;;;0.77;0.77;;;;;;;14.96;100.00;100474.63;5019453;28;20454;-53
2022/10/02 09:36:32;;;;;;;0.50;0.40;;;;;;;14.96;100.00;100471.94;5004088;28;20450;-50
2022/10/02 09:39:17;;;;;;;1.43;0.30;;;;;;;14.94;100.00;100472.00;5035078;28;20806;-52
2022/10/02 09:42:13;;;;;;;1.53;0.50;;;;;;;14.91;100.00;100479.28;5036212;28;20512;-53
2022/10/02 09:45:14;;;;;;;6.27;0.70;;;;;;;14.87;100.00;100480.38;5027879;28;20623;-52
2022/10/02 09:48:11;;;;;;;0.53;0.50;;;;;;;14.92;100.00;100475.66;5025658;28;20451;-50
2022/10/02 09:50:48;;;;;;;2.00;0.70;;;;;;;14.78;100.00;100461.06;5034650;28;20454;-51
2022/10/02 09:53:36;;;;;;;11.73;0.70;;;;;;;14.79;100.00;100467.28;5047717;28;20465;-52
2022/10/02 09:56:19;;;;;;;1.37;1.13;;;;;;;14.76;100.00;100460.28;5042795;28;20889;-51
2022/10/02 09:59:21;;;;;;;0.70;0.60;;;;;;;14.85;100.00;100461.69;5038844;28;20450;-50
2022/10/02 10:02:06;;;;;;;0.77;0.60;;;;;;;14.85;100.00;100452.78;5038792;28;20450;-52
2022/10/02 10:05:08;;;;;;;0.60;0.40;;;;;;;14.73;100.00;100447.03;5038297;28;20473;-51
2022/10/02 10:07:52;;;;;;;0.77;0.77;;;;;;;14.79;100.00;100433.38;5043495;28;20505;-52
2022/10/02 10:10:44;;;;;;;0.60;0.60;;;;;;;14.80;100.00;100444.94;5027909;28;20516;-50
2022/10/02 10:13:20;;;;;;;0.43;0.40;;;;;;;14.96;100.00;100464.78;5038326;28;20450;-51
2022/10/02 10:16:00;;;;;;;0.90;0.90;;;;;;;15.00;100.00;100473.53;5038789;28;20444;-51
2022/10/02 10:18:41;;;;;;;0.93;0.73;;;;;;;15.12;100.00;100478.34;5027418;28;20566;-53
2022/10/02 10:21:31;;;;;;;0.70;0.50;;;;;;;15.14;100.00;100484.50;5038394;28;20454;-53
2022/10/02 10:24:16;;;;;;;2.60;1.00;;;;;;;15.06;100.00;100476.81;5038058;28;20529;-55
2022/10/02 10:27:20;;;;;;;0.63;0.40;;;;;;;15.18;100.00;100482.56;5030191;28;21053;-51
2022/10/02 10:30:22;;;;;;;0.80;0.57;;;;;;;15.15;100.00;100482.69;5027480;28;20454;-51
2022/10/02 10:33:28;;;;;;;1.17;1.07;;;;;;;15.28;100.00;100492.81;5015494;28;20488;-51
2022/10/02 10:39:32;;;;;;;1.53;1.43;;;;;;;15.18;100.00;100487.91;5038070;28;20509;-51
2022/10/02 10:42:17;;;;;;;3.27;1.93;;;;;;;15.18;100.00;100490.59;5020181;28;20451;-52
2022/10/02 10:44:59;;;;;;;1.10;0.90;;;;;;;15.25;100.00;100490.28;5040410;28;20471;-54
2022/10/02 10:47:37;;;;;;;0.93;0.63;;;;;;;15.30;100.00;100498.09;5037829;28;20469;-51
2022/10/02 10:50:41;;;;;;;0.80;0.70;;;;;;;15.43;100.00;100496.59;5037710;28;20466;-51
2022/10/02 10:53:22;;;;;;;5.83;0.50;;;;;;;15.58;100.00;100503.06;5048919;28;20470;-53
2022/10/02 10:56:01;;;;;;;0.87;0.33;;;;;;;15.54;100.00;100498.78;5028031;28;20891;-52
2022/10/02 10:58:52;;;;;;;0.40;0.30;;;;;;;15.73;100.00;100496.16;5037884;28;20450;-52
2022/10/02 11:01:25;;;;;;;0.80;0.50;;;;;;;15.74;100.00;100496.09;5037665;28;20474;-52
2022/10/02 11:04:25;;;;;;;0.40;0.30;;;;;;;15.72;100.00;100497.09;5024779;28;20832;-54
2022/10/02 11:07:09;;;;;;;0.50;0.30;;;;;;;15.43;100.00;100496.59;5037317;28;20494;-53
2022/10/02 11:09:54;;;;;;;0.60;0.43;;;;;;;15.60;100.00;100499.41;5037235;28;20451;-53
2022/10/02 11:12:31;;;;;;;0.40;0.30;;;;;;;15.69;100.00;100504.34;5040550;28;20422;-52
2022/10/02 11:15:29;;;;;;;0.50;0.30;;;;;;;15.80;100.00;100509.22;5044073;28;20472;-51
2022/10/02 11:18:30;;;;;;;0.40;0.30;;;;;;;15.84;100.00;100512.63;5044050;28;20448;-52
2022/10/02 11:21:17;;;;;;;0.40;0.30;;;;;;;15.89;100.00;100505.22;5044010;28;20446;-54
2022/10/02 11:24:12;;;;;;;0.80;0.80;;;;;;;15.55;100.00;100501.41;5041494;28;20467;-53
2022/10/02 11:26:44;;;;;;;0.77;0.60;;;;;;;15.73;100.00;100505.06;5026974;28;20491;-53
2022/10/02 11:29:33;;;;;;;0.50;0.40;;;;;;;15.62;100.00;100510.94;5037181;28;20455;-53
2022/10/02 11:32:27;;;;;;;0.93;0.83;;;;;;;15.57;100.00;100502.19;5038539;28;20467;-55
2022/10/02 11:34:53;;;;;;;36.10;0.87;;;;;;;15.49;100.00;100490.06;5028758;28;20983;-52
2022/10/02 11:37:41;;;;;;;1.03;0.60;;;;;;;15.67;100.00;100495.50;5037004;28;20454;-51
2022/10/02 11:40:33;;;;;;;0.70;0.40;;;;;;;15.49;100.00;100496.34;5038014;28;20455;-51
2022/10/02 11:43:12;;;;;;;0.50;0.50;;;;;;;15.55;100.00;100492.50;5029077;28;20483;-51
2022/10/02 11:46:03;;;;;;;0.50;0.40;;;;;;;15.49;100.00;100506.16;5037571;28;20498;-51
2022/10/02 11:48:46;;;;;;;0.43;0.40;;;;;;;15.45;100.00;100507.25;5048487;28;20876;-53
2022/10/02 11:51:35;;;;;;;0.90;0.77;;;;;;;15.55;100.00;100517.47;5041233;28;20498;-54
2022/10/02 11:54:20;;;;;;;0.40;0.30;;;;;;;15.65;100.00;100513.47;5006605;28;21011;-51
2022/10/02 11:57:20;;;;;;;0.93;0.30;;;;;;;15.56;100.00;100503.13;5036203;28;20462;-53
2022/10/02 12:00:14;;;;;;;0.70;0.70;;;;;;;15.59;100.00;100512.84;5036178;28;20502;-52
2022/10/02 12:03:00;;;;;;;0.47;0.37;;;;;;;15.62;100.00;100502.00;5035964;28;20517;-51
2022/10/02 12:05:45;;;;;;;0.90;0.80;;;;;;;15.72;100.00;100514.06;5041946;28;20502;-50
2022/10/02 12:08:17;;;;;;;0.90;0.70;;;;;;;15.80;100.00;100495.81;5038811;28;21022;-51
2022/10/02 12:11:08;;;;;;;0.40;0.30;;;;;;;15.89;100.00;100499.84;5038840;28;20459;-55
2022/10/02 12:13:47;;;;;;;0.40;0.30;;;;;;;15.85;100.00;100506.31;5029087;28;20968;-51
2022/10/02 12:16:31;;;;;;;6.97;0.90;;;;;;;15.83;100.00;100506.38;5041856;28;20508;-51
2022/10/02 12:19:10;;;;;;;0.40;0.30;;;;;;;15.97;100.00;100489.66;5032494;28;20451;-53
2022/10/02 12:28:04;;;;;;;0.50;0.40;;;;;;;16.05;100.00;100495.53;5035647;28;20459;-51
2022/10/02 12:30:53;;;;;;;1.17;0.40;;;;;;;16.13;100.00;100504.06;5037422;28;20498;-52
2022/10/02 12:33:44;;;;;;;0.50;0.40;;;;;;;16.08;100.00;100490.00;5025132;28;20455;-51
2022/10/02 12:36:25;;;;;;;0.80;0.80;;;;;;;16.14;100.00;100502.25;5034597;28;20500;-52